createdAt,value
2018-07-02T00:00:19.006Z,13.00
2018-07-02T00:02:47.846Z,13.00
2018-07-02T00:05:16.663Z,12.90
2018-07-02T00:07:45.474Z,12.90
2018-07-02T00:12:42.780Z,12.90
2018-07-02T00:15:11.574Z,12.80
2018-07-02T00:17:40.816Z,12.80
2018-07-02T00:20:09.644Z,12.80
2018-07-02T00:22:38.455Z,12.80
2018-07-02T00:25:07.267Z,12.80
2018-07-02T00:27:36.078Z,12.80
2018-07-02T00:32:33.411Z,12.70
2018-07-02T00:35:02.203Z,12.70
2018-07-02T00:37:31.010Z,12.70
2018-07-02T00:39:59.806Z,12.60
2018-07-02T00:42:28.612Z,12.60
2018-07-02T00:44:57.410Z,12.50
2018-07-02T00:47:26.222Z,12.50
2018-07-02T00:49:55.022Z,12.50
2018-07-02T00:52:23.835Z,12.50
2018-07-02T00:54:52.630Z,12.50
2018-07-02T00:57:21.438Z,12.40
2018-07-02T00:59:50.242Z,12.40
2018-07-02T01:02:19.062Z,12.40
2018-07-02T01:04:47.860Z,12.30
2018-07-02T01:07:16.658Z,12.30
2018-07-02T01:09:45.470Z,12.30
2018-07-02T01:12:14.281Z,12.20
2018-07-02T01:14:43.087Z,12.20
2018-07-02T01:17:11.906Z,12.20
2018-07-02T01:19:40.709Z,12.20
2018-07-02T01:22:09.514Z,12.20
2018-07-02T01:27:06.910Z,12.10
2018-07-02T01:29:36.511Z,12.10
2018-07-02T01:32:05.323Z,12.00
2018-07-02T01:34:34.123Z,12.00
2018-07-02T01:37:02.945Z,11.90
2018-07-02T01:39:32.300Z,11.90
2018-07-02T01:42:01.107Z,11.90
2018-07-02T01:44:29.919Z,11.90
2018-07-02T01:46:58.725Z,11.80
2018-07-02T01:49:27.535Z,11.80
2018-07-02T01:51:56.365Z,11.90
2018-07-02T01:54:25.185Z,11.80
2018-07-02T01:56:54.036Z,11.80
2018-07-02T01:59:22.855Z,11.70
2018-07-02T02:01:51.678Z,11.70
2018-07-02T02:04:20.486Z,11.70
2018-07-02T02:06:49.302Z,11.70
2018-07-02T02:09:18.119Z,11.60
2018-07-02T02:11:46.920Z,11.60
2018-07-02T02:14:15.740Z,11.60
2018-07-02T02:16:44.547Z,11.50
2018-07-02T02:19:13.854Z,11.50
2018-07-02T02:21:42.657Z,11.50
2018-07-02T02:24:11.668Z,11.50
2018-07-02T02:26:40.470Z,11.40
2018-07-02T02:29:09.283Z,11.40
2018-07-02T02:31:38.082Z,11.40
2018-07-02T02:34:06.886Z,11.40
2018-07-02T02:36:35.678Z,11.30
2018-07-02T02:39:06.804Z,11.30
2018-07-02T02:41:35.662Z,11.30
2018-07-02T02:44:04.895Z,11.30
2018-07-02T02:46:33.697Z,11.30
2018-07-02T02:49:02.495Z,11.20
2018-07-02T02:51:31.308Z,11.20
2018-07-02T02:54:00.102Z,11.20
2018-07-02T02:56:28.916Z,11.10
2018-07-02T02:58:57.722Z,11.10
2018-07-02T03:01:26.531Z,11.20
2018-07-02T03:03:55.343Z,11.20
2018-07-02T03:06:24.135Z,11.20
2018-07-02T03:08:52.942Z,11.20
2018-07-02T03:11:21.738Z,11.20
2018-07-02T03:13:50.553Z,11.30
2018-07-02T03:16:19.359Z,11.30
2018-07-02T03:21:16.661Z,11.50
2018-07-02T03:23:45.567Z,11.60
2018-07-02T03:26:14.383Z,11.70
2018-07-02T03:28:43.182Z,11.80
2018-07-02T03:31:11.979Z,11.90
2018-07-02T03:33:40.786Z,12.10
2018-07-02T03:36:09.591Z,12.30
2018-07-02T03:38:38.390Z,12.50
2018-07-02T03:41:07.201Z,12.60
2018-07-02T03:43:36.010Z,12.80
2018-07-02T03:46:04.815Z,13.00
2018-07-02T03:48:33.614Z,13.20
2018-07-02T03:51:02.655Z,13.40
2018-07-02T03:53:31.636Z,13.60
2018-07-02T03:56:00.723Z,13.90
2018-07-02T03:58:29.545Z,14.10
2018-07-02T04:00:58.346Z,14.30
2018-07-02T04:03:27.153Z,14.60
2018-07-02T04:05:55.947Z,14.80
2018-07-02T04:08:24.762Z,15.10
2018-07-02T04:10:53.559Z,15.30
2018-07-02T04:13:22.358Z,15.50
2018-07-02T04:15:51.174Z,15.70
2018-07-02T04:18:19.977Z,15.80
2018-07-02T04:20:48.819Z,15.80
2018-07-02T04:23:17.634Z,15.80
2018-07-02T04:25:46.526Z,15.60
2018-07-02T04:28:15.327Z,15.70
2018-07-02T04:30:44.128Z,15.90
2018-07-02T04:33:12.953Z,16.10
2018-07-02T04:35:41.769Z,16.20
2018-07-02T04:38:10.607Z,16.60
2018-07-02T04:40:39.414Z,16.80
2018-07-02T04:43:08.246Z,17.20
2018-07-02T04:45:37.055Z,17.70
2018-07-02T04:48:06.080Z,17.70
2018-07-02T04:50:34.932Z,17.60
2018-07-02T04:53:03.709Z,17.90
2018-07-02T04:55:32.665Z,18.00
2018-07-02T04:58:01.830Z,18.10
2018-07-02T05:00:30.737Z,18.50
2018-07-02T05:02:59.615Z,19.00
2018-07-02T05:05:28.432Z,19.30
2018-07-02T05:07:57.422Z,19.80
2018-07-02T05:10:26.051Z,19.80
2018-07-02T05:12:54.841Z,19.60
2018-07-02T05:15:23.672Z,19.60
2018-07-02T05:17:52.509Z,19.80
2018-07-02T05:20:21.328Z,20.40
2018-07-02T05:22:50.124Z,21.40
2018-07-02T05:25:18.948Z,21.60
2018-07-02T05:27:47.789Z,22.20
2018-07-02T05:30:16.609Z,23.00
2018-07-02T05:32:45.411Z,24.90
2018-07-02T05:35:14.209Z,26.70
2018-07-02T05:37:43.013Z,28.50
2018-07-02T05:40:11.837Z,30.10
2018-07-02T05:42:40.639Z,31.20
2018-07-02T05:45:09.443Z,31.70
2018-07-02T05:47:38.244Z,31.20
2018-07-02T05:50:07.114Z,29.90
2018-07-02T05:52:35.919Z,29.40
2018-07-02T05:55:04.890Z,30.20
2018-07-02T05:57:33.707Z,31.30
2018-07-02T06:00:02.591Z,32.10
2018-07-02T06:02:31.383Z,33.00
2018-07-02T06:05:00.299Z,33.60
2018-07-02T06:07:29.000Z,33.50
2018-07-02T06:09:58.441Z,33.80
2018-07-02T06:12:27.245Z,33.00
2018-07-02T06:14:56.065Z,31.00
2018-07-02T06:17:24.859Z,29.90
2018-07-02T06:19:53.667Z,29.50
2018-07-02T06:22:22.462Z,28.80
2018-07-02T06:24:51.338Z,28.30
2018-07-02T06:27:20.091Z,28.80
2018-07-02T06:29:48.906Z,28.50
2018-07-02T06:32:17.691Z,28.70
2018-07-02T06:34:46.490Z,29.80
2018-07-02T06:37:15.290Z,30.80
2018-07-02T06:39:44.166Z,30.90
2018-07-02T06:42:12.903Z,30.30
2018-07-02T06:44:41.703Z,31.00
2018-07-02T06:49:39.002Z,28.70
2018-07-02T06:52:07.815Z,28.60
2018-07-02T06:54:36.619Z,28.10
2018-07-02T06:57:05.526Z,28.10
2018-07-02T06:59:34.313Z,28.50
2018-07-02T07:02:03.114Z,28.20
2018-07-02T07:04:31.919Z,29.20
2018-07-02T07:07:00.736Z,30.40
2018-07-02T07:09:29.563Z,30.80
2018-07-02T07:11:58.371Z,30.10
2018-07-02T07:14:27.195Z,30.50
2018-07-02T07:16:56.020Z,29.90
2018-07-02T07:19:24.819Z,29.90
2018-07-02T07:21:53.634Z,29.20
2018-07-02T07:24:22.428Z,28.00
2018-07-02T07:26:51.239Z,26.50
2018-07-02T07:29:20.039Z,25.70
2018-07-02T07:31:48.835Z,26.80
2018-07-02T07:34:17.641Z,27.00
2018-07-02T07:36:46.535Z,27.00
2018-07-02T07:39:15.303Z,26.60
2018-07-02T07:41:44.108Z,26.60
2018-07-02T07:44:12.906Z,26.10
2018-07-02T07:46:41.711Z,25.10
2018-07-02T07:49:10.506Z,24.80
2018-07-02T07:51:39.329Z,23.70
2018-07-02T07:54:08.303Z,22.90
2018-07-02T07:56:37.111Z,22.90
2018-07-02T07:59:05.925Z,23.00
2018-07-02T08:01:34.751Z,22.80
2018-07-02T08:04:03.550Z,22.10
2018-07-02T08:06:32.351Z,21.40
2018-07-02T08:09:01.151Z,21.60
2018-07-02T08:11:29.955Z,21.50
2018-07-02T08:13:58.734Z,21.80
2018-07-02T08:16:27.534Z,22.00
2018-07-02T08:18:56.364Z,22.60
2018-07-02T08:21:25.141Z,22.60
2018-07-02T08:23:53.938Z,23.20
2018-07-02T08:26:23.039Z,23.20
2018-07-02T08:28:51.835Z,22.60
2018-07-02T08:31:20.673Z,21.70
2018-07-02T08:33:49.503Z,21.20
2018-07-02T08:36:18.286Z,21.50
2018-07-02T08:38:47.143Z,21.60
2018-07-02T08:41:15.955Z,22.00
2018-07-02T08:43:44.772Z,22.60
2018-07-02T08:46:13.571Z,23.00
2018-07-02T08:48:42.380Z,22.70
2018-07-02T08:51:11.191Z,22.70
2018-07-02T08:53:39.998Z,22.00
2018-07-02T08:56:08.794Z,22.00
2018-07-02T08:58:38.204Z,22.60
2018-07-02T09:01:07.315Z,23.60
2018-07-02T09:03:36.107Z,24.00
2018-07-02T09:06:05.119Z,23.20
2018-07-02T09:08:33.924Z,22.40
2018-07-02T09:11:02.718Z,22.40
2018-07-02T09:13:31.901Z,22.90
2018-07-02T09:16:00.705Z,23.20
2018-07-02T09:18:29.486Z,22.90
2018-07-02T09:20:58.288Z,22.70
2018-07-02T09:23:27.091Z,22.80
2018-07-02T09:25:55.890Z,22.40
2018-07-02T09:28:24.687Z,22.30
2018-07-02T09:30:53.487Z,22.60
2018-07-02T09:33:22.293Z,23.10
2018-07-02T09:35:51.103Z,23.10
2018-07-02T09:38:19.900Z,23.30
2018-07-02T09:40:48.827Z,23.10
2018-07-02T09:43:17.622Z,23.20
2018-07-02T09:45:46.443Z,23.50
2018-07-02T09:48:15.231Z,23.50
2018-07-02T09:50:44.036Z,23.90
2018-07-02T09:53:12.829Z,23.80
2018-07-02T09:55:41.610Z,23.90
2018-07-02T09:58:10.425Z,23.90
2018-07-02T10:00:39.270Z,24.10
2018-07-02T10:03:09.250Z,24.40
2018-07-02T10:05:38.244Z,24.90
2018-07-02T10:08:07.178Z,23.70
2018-07-02T10:10:35.996Z,23.10
2018-07-02T10:13:04.809Z,23.20
2018-07-02T10:15:33.619Z,23.10
2018-07-02T10:18:02.452Z,22.90
2018-07-02T10:20:31.823Z,23.30
2018-07-02T10:23:00.935Z,23.90
2018-07-02T10:27:58.323Z,24.80
2018-07-02T10:30:27.128Z,24.20
2018-07-02T10:32:55.926Z,23.50
2018-07-02T10:35:24.747Z,22.50
2018-07-02T10:37:53.779Z,22.00
2018-07-02T10:40:22.563Z,22.10
2018-07-02T10:42:51.379Z,22.20
2018-07-02T10:45:20.175Z,22.40
2018-07-02T10:47:48.995Z,22.70
2018-07-02T10:50:17.860Z,22.00
2018-07-02T10:55:15.112Z,22.00
2018-07-02T10:57:43.914Z,22.10
2018-07-02T11:00:12.732Z,22.20
2018-07-02T11:02:41.846Z,22.30
2018-07-02T11:07:39.155Z,22.10
2018-07-02T11:10:07.954Z,21.70
2018-07-02T11:12:36.757Z,21.50
2018-07-02T11:15:05.566Z,20.90
2018-07-02T11:17:34.383Z,20.90
2018-07-02T11:20:03.228Z,20.40
2018-07-02T11:22:32.038Z,20.30
2018-07-02T11:25:00.870Z,20.30
2018-07-02T11:27:29.687Z,20.50
2018-07-02T11:29:58.588Z,20.90
2018-07-02T11:32:27.910Z,21.30
2018-07-02T11:34:56.703Z,21.60
2018-07-02T11:37:25.548Z,21.50
2018-07-02T11:39:54.346Z,21.20
2018-07-02T11:42:23.171Z,20.90
2018-07-02T11:44:52.030Z,20.70
2018-07-02T11:47:20.844Z,20.60
2018-07-02T11:49:49.646Z,20.60
2018-07-02T11:52:18.905Z,20.70
2018-07-02T11:54:47.683Z,20.80
2018-07-02T11:57:16.503Z,20.80
2018-07-02T11:59:45.312Z,20.60
2018-07-02T12:02:14.159Z,20.70
2018-07-02T12:04:42.980Z,20.70
2018-07-02T12:07:11.823Z,20.70
2018-07-02T12:09:40.643Z,20.70
2018-07-02T12:12:09.442Z,20.70
2018-07-02T12:14:38.256Z,20.90
2018-07-02T12:17:07.062Z,21.00
2018-07-02T12:19:35.896Z,20.80
2018-07-02T12:22:05.596Z,20.80
2018-07-02T12:24:35.134Z,20.70
2018-07-02T12:27:03.966Z,20.70
2018-07-02T12:29:32.923Z,20.70
2018-07-02T12:32:01.827Z,20.60
2018-07-02T12:34:30.613Z,20.60
2018-07-02T12:36:59.476Z,20.70
2018-07-02T12:41:56.831Z,20.70
2018-07-02T12:44:25.639Z,20.80
2018-07-02T12:46:54.430Z,20.90
2018-07-02T12:49:23.241Z,20.90
2018-07-02T12:51:52.038Z,21.00
2018-07-02T12:54:20.914Z,21.10
2018-07-02T12:56:49.644Z,21.20
2018-07-02T12:59:18.438Z,21.30
2018-07-02T13:04:15.852Z,21.40
2018-07-02T13:06:44.623Z,21.50
2018-07-02T13:09:13.647Z,21.50
2018-07-02T13:11:42.972Z,21.40
2018-07-02T13:14:12.227Z,21.50
2018-07-02T13:16:41.035Z,21.50
2018-07-02T13:19:09.844Z,21.60
2018-07-02T13:21:38.903Z,21.70
2018-07-02T13:24:07.729Z,21.70
2018-07-02T13:26:36.522Z,21.60
2018-07-02T13:29:05.339Z,21.50
2018-07-02T13:31:34.144Z,21.50
2018-07-02T13:34:03.287Z,21.40
2018-07-02T13:36:32.084Z,21.40
2018-07-02T13:39:00.887Z,21.60
2018-07-02T13:41:29.704Z,21.50
2018-07-02T13:43:58.494Z,21.50
2018-07-02T13:46:27.520Z,21.40
2018-07-02T13:48:56.317Z,21.50
2018-07-02T13:51:25.123Z,21.40
2018-07-02T13:53:53.933Z,21.40
2018-07-02T13:56:22.783Z,21.40
2018-07-02T13:58:51.575Z,21.40
2018-07-02T14:01:20.389Z,21.30
2018-07-02T14:03:49.203Z,21.40
2018-07-02T14:06:17.993Z,21.60
2018-07-02T14:08:46.800Z,21.80
2018-07-02T14:11:15.619Z,22.00
2018-07-02T14:13:44.461Z,22.00
2018-07-02T14:16:13.257Z,21.90
2018-07-02T14:18:42.078Z,21.70
2018-07-02T14:21:10.898Z,21.70
2018-07-02T14:23:39.711Z,21.70
2018-07-02T14:26:08.518Z,21.70
2018-07-02T14:28:37.324Z,21.70
2018-07-02T14:31:06.124Z,21.80
2018-07-02T14:33:34.928Z,21.80
2018-07-02T14:36:03.730Z,21.90
2018-07-02T14:38:32.537Z,22.00
2018-07-02T14:41:01.336Z,21.90
2018-07-02T14:43:30.147Z,21.80
2018-07-02T14:45:58.940Z,21.90
2018-07-02T14:48:27.759Z,21.90
2018-07-02T14:50:56.591Z,21.90
2018-07-02T14:53:25.359Z,22.00
2018-07-02T14:55:54.155Z,21.90
2018-07-02T14:58:22.954Z,21.90
2018-07-02T15:00:51.759Z,21.90
2018-07-02T15:03:20.562Z,22.00
2018-07-02T15:05:49.363Z,22.00
2018-07-02T15:08:18.174Z,22.00
2018-07-02T15:10:46.966Z,22.00
2018-07-02T15:13:15.780Z,22.10
2018-07-02T15:15:44.587Z,22.00
2018-07-02T15:18:13.928Z,21.90
2018-07-02T15:20:42.683Z,21.90
2018-07-02T15:23:11.484Z,21.80
2018-07-02T15:25:40.303Z,21.80
2018-07-02T15:28:09.114Z,22.00
2018-07-02T15:30:37.933Z,22.00
2018-07-02T15:33:06.744Z,22.00
2018-07-02T15:35:35.557Z,22.10
2018-07-02T15:38:04.531Z,22.30
2018-07-02T15:40:33.347Z,22.30
2018-07-02T15:43:02.151Z,22.30
2018-07-02T15:45:30.971Z,22.30
2018-07-02T15:47:59.825Z,22.30
2018-07-02T15:50:28.651Z,22.20
2018-07-02T15:52:57.485Z,22.20
2018-07-02T15:55:26.308Z,22.20
2018-07-02T15:57:55.116Z,22.20
2018-07-02T16:00:23.934Z,22.10
2018-07-02T16:02:52.970Z,22.10
2018-07-02T16:05:21.550Z,22.00
2018-07-02T16:07:50.359Z,22.10
2018-07-02T16:10:19.374Z,22.20
2018-07-02T16:17:45.271Z,22.00
2018-07-02T16:20:14.088Z,21.90
2018-07-02T16:22:42.894Z,21.90
2018-07-02T16:25:11.724Z,21.90
2018-07-02T16:27:40.624Z,21.90
2018-07-02T16:30:10.374Z,21.90
2018-07-02T16:32:39.310Z,21.90
2018-07-02T16:35:08.128Z,21.90
2018-07-02T16:37:36.923Z,21.90
2018-07-02T16:40:05.895Z,21.90
2018-07-02T16:42:34.698Z,22.00
2018-07-02T16:45:03.578Z,22.00
2018-07-02T16:47:32.378Z,22.00
2018-07-02T16:50:01.350Z,22.10
2018-07-02T16:52:30.205Z,22.10
2018-07-02T16:54:58.991Z,22.00
2018-07-02T16:57:27.759Z,22.00
2018-07-02T16:59:56.573Z,22.00
2018-07-02T17:02:25.487Z,22.00
2018-07-02T17:04:54.306Z,22.00
2018-07-02T17:07:23.098Z,21.90
2018-07-02T17:09:51.917Z,21.80
2018-07-02T17:12:20.739Z,21.80
2018-07-02T17:14:49.552Z,21.90
2018-07-02T17:17:18.353Z,21.90
2018-07-02T17:19:47.159Z,21.80
2018-07-02T17:24:44.551Z,21.70
2018-07-02T17:27:13.346Z,21.70
2018-07-02T17:29:42.160Z,21.60
2018-07-02T17:32:10.967Z,21.70
2018-07-02T17:34:39.834Z,21.70
2018-07-02T17:37:08.653Z,21.70
2018-07-02T17:39:37.503Z,21.60
2018-07-02T17:42:06.606Z,21.60
2018-07-02T17:44:35.420Z,21.70
2018-07-02T17:49:32.840Z,21.60
2018-07-02T17:52:01.779Z,21.60
2018-07-02T17:54:30.932Z,21.60
2018-07-02T17:56:59.736Z,21.60
2018-07-02T17:59:28.527Z,21.60
2018-07-02T18:01:57.347Z,21.60
2018-07-02T18:04:26.145Z,21.50
2018-07-02T18:06:55.071Z,21.50
2018-07-02T18:09:23.870Z,21.50
2018-07-02T18:11:52.682Z,21.50
2018-07-02T18:14:21.485Z,21.50
2018-07-02T18:16:50.298Z,21.50
2018-07-02T18:19:19.101Z,21.50
2018-07-02T18:21:47.907Z,21.50
2018-07-02T18:24:16.710Z,21.40
2018-07-02T18:26:45.564Z,21.30
2018-07-02T18:29:14.312Z,21.20
2018-07-02T18:31:43.119Z,21.10
2018-07-02T18:34:12.327Z,21.10
2018-07-02T18:36:41.128Z,21.00
2018-07-02T18:39:11.787Z,21.10
2018-07-02T18:41:40.849Z,21.00
2018-07-02T18:44:09.660Z,20.90
2018-07-02T18:46:38.560Z,20.90
2018-07-02T18:49:07.525Z,20.90
2018-07-02T18:51:36.388Z,20.90
2018-07-02T18:54:05.214Z,20.90
2018-07-02T18:56:34.024Z,20.80
2018-07-02T18:59:02.822Z,20.80
2018-07-02T19:01:31.796Z,20.70
2018-07-02T19:04:00.623Z,20.60
2018-07-02T19:06:29.431Z,20.40
2018-07-02T19:08:58.243Z,20.30
2018-07-02T19:11:27.238Z,20.20
2018-07-02T19:13:56.043Z,20.00
2018-07-02T19:16:24.937Z,19.90
2018-07-02T19:18:53.676Z,19.70
2018-07-02T19:21:22.478Z,19.60
2018-07-02T19:23:51.292Z,19.50
2018-07-02T19:26:20.098Z,19.40
2018-07-02T19:28:48.931Z,19.30
2018-07-02T19:31:17.735Z,19.10
2018-07-02T19:33:46.547Z,19.00
2018-07-02T19:36:15.470Z,18.90
2018-07-02T19:38:44.264Z,18.80
2018-07-02T19:41:13.101Z,18.70
2018-07-02T19:43:42.630Z,18.60
2018-07-02T19:46:11.443Z,18.50
2018-07-02T19:48:40.239Z,18.40
2018-07-02T19:56:06.110Z,18.20
2018-07-02T19:58:34.928Z,18.10
2018-07-02T20:01:04.122Z,18.10
2018-07-02T20:03:32.899Z,18.00
2018-07-02T20:06:02.164Z,17.90
2018-07-02T20:08:30.968Z,17.80
2018-07-02T20:13:28.938Z,17.70
2018-07-02T20:15:58.564Z,17.60
2018-07-02T20:18:27.937Z,17.60
2018-07-02T20:20:57.367Z,17.50
2018-07-02T20:23:26.163Z,17.40
2018-07-02T20:25:54.967Z,17.40
2018-07-02T20:28:23.754Z,17.30
2018-07-02T20:30:52.546Z,17.20
2018-07-02T20:33:21.355Z,17.20
2018-07-02T20:35:50.166Z,17.20
2018-07-02T20:38:19.020Z,17.10
2018-07-02T20:40:47.799Z,17.10
2018-07-02T20:43:16.582Z,17.00
2018-07-02T20:45:45.401Z,17.00
2018-07-02T20:48:14.166Z,16.90
2018-07-02T20:50:42.986Z,16.90
2018-07-02T20:53:11.791Z,16.90
2018-07-02T20:55:40.602Z,16.70
2018-07-02T20:58:09.411Z,16.70
2018-07-02T21:00:38.198Z,16.70
2018-07-02T21:03:07.003Z,16.70
2018-07-02T21:05:35.796Z,16.60
2018-07-02T21:08:04.901Z,16.50
2018-07-02T21:10:33.722Z,16.50
2018-07-02T21:13:02.502Z,16.50
2018-07-02T21:15:31.323Z,16.50
2018-07-02T21:18:00.139Z,16.40
2018-07-02T21:20:28.947Z,16.40
2018-07-02T21:22:57.745Z,16.30
2018-07-02T21:25:26.562Z,16.30
2018-07-02T21:27:55.375Z,16.30
2018-07-02T21:30:24.175Z,16.30
2018-07-02T21:32:52.984Z,16.20
2018-07-02T21:35:21.791Z,16.30
2018-07-02T21:37:50.585Z,16.20
2018-07-02T21:40:19.383Z,16.10
2018-07-02T21:42:48.411Z,16.10
2018-07-02T21:45:17.243Z,16.10
2018-07-02T21:47:46.046Z,16.00
2018-07-02T21:50:14.847Z,16.00
2018-07-02T21:52:43.663Z,16.00
2018-07-02T21:55:12.472Z,16.00
2018-07-02T21:57:41.278Z,16.00
2018-07-02T22:00:12.138Z,16.00
2018-07-02T22:02:40.943Z,16.00
2018-07-02T22:05:10.141Z,15.90
2018-07-02T22:07:39.352Z,15.90
2018-07-02T22:10:08.366Z,15.90
2018-07-02T22:12:37.539Z,15.90
2018-07-02T22:15:06.459Z,15.80
2018-07-02T22:17:35.270Z,15.80
2018-07-02T22:20:04.629Z,15.80
2018-07-02T22:22:33.447Z,15.80
2018-07-02T22:25:02.243Z,15.70
2018-07-02T22:29:59.543Z,15.60
2018-07-02T22:32:28.355Z,15.60
2018-07-02T22:34:57.150Z,15.60
2018-07-02T22:37:25.960Z,15.60
2018-07-02T22:39:54.772Z,15.50
2018-07-02T22:42:23.591Z,15.50
2018-07-02T22:44:52.391Z,15.40
2018-07-02T22:47:21.203Z,15.30
2018-07-02T22:49:50.009Z,15.20
2018-07-02T22:52:18.826Z,15.20
2018-07-02T22:54:47.642Z,15.20
2018-07-02T22:57:16.455Z,15.10
2018-07-02T22:59:45.330Z,15.00
2018-07-02T23:02:14.144Z,15.00
2018-07-02T23:04:42.956Z,14.90
2018-07-02T23:09:40.259Z,14.80
2018-07-02T23:12:09.057Z,14.80
2018-07-02T23:14:37.850Z,14.80
2018-07-02T23:17:06.672Z,14.80
2018-07-02T23:19:35.502Z,14.80
2018-07-02T23:22:04.305Z,14.80
2018-07-02T23:24:33.111Z,14.80
2018-07-02T23:27:01.907Z,14.80
2018-07-02T23:29:30.722Z,14.80
2018-07-02T23:31:59.514Z,14.80
2018-07-02T23:34:28.324Z,14.80
2018-07-02T23:36:57.115Z,14.80
2018-07-02T23:39:25.930Z,14.80
2018-07-02T23:41:54.747Z,14.80
2018-07-02T23:44:23.552Z,14.70
2018-07-02T23:46:52.359Z,14.70
2018-07-02T23:49:21.163Z,14.70
2018-07-02T23:51:49.963Z,14.70
2018-07-02T23:54:18.780Z,14.70
2018-07-02T23:56:47.605Z,14.70
2018-07-02T23:59:16.397Z,14.60
